Time;durP1;ratioP1;P1;durP2;ratioP2;P2;SDS_P1;SDS_P2;PMS_P1;PMS_P2;Temp;Humidity;BMP_temperature;BMP_pressure;BME280_temperature;BME280_humidity;BME280_pressure;Samples;Min_cycle;Max_cycle;Signal;HPM_P1;HPM_P2
2023/09/04 00:00:29;;;;;;;0.00;0.00;;;;;;;16.50;100.00;102754.75;5074440;28;20028;-45
2023/09/04 00:02:54;;;;;;;0.00;0.00;;;;;;;16.46;100.00;102754.28;5071209;28;20426;-46
2023/09/04 00:05:20;;;;;;;0.00;0.00;;;;;;;16.42;100.00;102752.91;5071453;28;20474;-48
2023/09/04 00:07:45;;;;;;;0.00;0.00;;;;;;;16.40;100.00;102751.41;5071709;28;20391;-45
2023/09/04 00:10:11;;;;;;;0.00;0.00;;;;;;;16.37;100.00;102749.88;5077276;28;20382;-46
2023/09/04 00:12:36;;;;;;;0.00;0.00;;;;;;;16.35;100.00;102748.34;5075725;28;20056;-46
2023/09/04 00:15:02;;;;;;;0.00;0.00;;;;;;;16.34;100.00;102743.94;5071202;28;20020;-46
2023/09/04 00:17:27;;;;;;;0.00;0.00;;;;;;;16.32;100.00;102754.97;5072169;28;20033;-47
2023/09/04 00:19:53;;;;;;;0.00;0.00;;;;;;;16.27;100.00;102751.09;5073836;28;20485;-47
2023/09/04 00:22:19;;;;;;;0.00;0.00;;;;;;;16.24;100.00;102749.56;5071523;28;20032;-47
2023/09/04 00:24:44;;;;;;;0.00;0.00;;;;;;;16.20;100.00;102746.34;5071066;28;20128;-49
2023/09/04 00:27:10;;;;;;;0.00;0.00;;;;;;;16.16;100.00;102738.72;5071267;28;20111;-49
2023/09/04 00:29:35;;;;;;;0.00;0.00;;;;;;;16.19;100.00;102743.81;5071544;28;20056;-47
2023/09/04 00:32:02;;;;;;;0.00;0.00;;;;;;;16.17;100.00;102746.72;5071114;28;20037;-48
2023/09/04 00:34:28;;;;;;;0.00;0.00;;;;;;;16.14;100.00;102735.31;5070881;28;20091;-46
2023/09/04 00:36:53;;;;;;;0.00;0.00;;;;;;;16.13;100.00;102739.91;5070685;28;20033;-48
2023/09/04 00:39:18;;;;;;;0.00;0.00;;;;;;;16.13;100.00;102744.50;5071106;28;20024;-46
2023/09/04 00:41:45;;;;;;;0.00;0.00;;;;;;;16.08;100.00;102745.00;5070619;28;20292;-49
2023/09/04 00:44:10;;;;;;;0.00;0.00;;;;;;;16.08;100.00;102747.72;5069247;28;20390;-45
2023/09/04 00:46:35;;;;;;;0.00;0.00;;;;;;;16.04;100.00;102748.25;5070540;28;20033;-47
2023/09/04 00:49:01;;;;;;;0.00;0.00;;;;;;;16.01;100.00;102744.88;5070706;28;20127;-47
2023/09/04 00:51:27;;;;;;;0.00;0.00;;;;;;;15.98;100.00;102747.06;5070631;28;20106;-47
2023/09/04 00:53:52;;;;;;;0.00;0.00;;;;;;;15.96;100.00;102740.97;5071541;28;20035;-46
2023/09/04 00:56:18;;;;;;;0.00;0.00;;;;;;;15.93;100.00;102734.00;5074858;28;20165;-49
2023/09/04 00:58:43;;;;;;;0.00;0.00;;;;;;;15.93;100.00;102744.00;5070603;28;20508;-46
2023/09/04 01:01:09;;;;;;;0.00;0.00;;;;;;;15.90;100.00;102742.47;5032833;28;20036;-47
2023/09/04 01:03:34;;;;;;;0.00;0.00;;;;;;;15.88;100.00;102741.81;5067904;28;20053;-48
2023/09/04 01:05:59;;;;;;;0.00;0.00;;;;;;;15.87;100.00;102745.53;5071224;28;20436;-46
2023/09/04 01:08:25;;;;;;;0.00;0.00;;;;;;;15.86;100.00;102751.16;5070617;28;20033;-47
2023/09/04 01:11:04;;;;;;;0.00;0.00;;;;;;;15.83;100.00;102746.91;5052654;28;20550;-46
2023/09/04 01:13:50;;;;;;;0.00;0.00;;;;;;;15.81;100.00;102751.66;5058491;28;20028;-49
2023/09/04 01:16:17;;;;;;;0.00;0.00;;;;;;;15.79;100.00;102748.25;5055190;28;20159;-45
2023/09/04 01:18:43;;;;;;;0.00;0.00;;;;;;;15.78;100.00;102749.28;5070405;28;20463;-45
2023/09/04 01:21:08;;;;;;;0.00;0.00;;;;;;;15.77;100.00;102745.72;5070705;28;20090;-47
2023/09/04 01:23:34;;;;;;;0.00;0.00;;;;;;;15.74;100.00;102742.47;5070730;28;20028;-46
2023/09/04 01:26:07;;;;;;;0.00;0.00;;;;;;;15.76;100.00;102737.75;5089329;28;20035;-48
2023/09/04 01:28:46;;;;;;;0.00;0.00;;;;;;;15.74;100.00;102734.34;5081149;28;20036;-48
2023/09/04 01:31:24;;;;;;;0.00;0.00;;;;;;;15.72;100.00;102731.81;5067846;28;20036;-47
2023/09/04 01:33:51;;;;;;;0.00;0.00;;;;;;;15.71;100.00;102731.97;5083663;28;20063;-45
2023/09/04 01:36:17;;;;;;;0.00;0.00;;;;;;;15.70;100.00;102743.88;5052234;28;20096;-46
2023/09/04 01:38:46;;;;;;;0.00;0.00;;;;;;;15.69;100.00;102747.56;5083774;28;20513;-46
2023/09/04 01:41:12;;;;;;;0.00;0.00;;;;;;;15.67;100.00;102736.88;5072254;28;20110;-47
2023/09/04 01:43:37;;;;;;;0.00;0.00;;;;;;;15.68;100.00;102740.44;5070644;28;20487;-46
2023/09/04 01:46:02;;;;;;;0.00;0.00;;;;;;;15.68;100.00;102735.00;5072065;28;20039;-48
2023/09/04 01:48:28;;;;;;;0.00;0.00;;;;;;;15.66;100.00;102727.00;5070794;28;20024;-47
2023/09/04 01:50:54;;;;;;;0.00;0.00;;;;;;;15.63;100.00;102730.06;5070621;28;20056;-48
2023/09/04 01:53:20;;;;;;;0.00;0.00;;;;;;;15.62;100.00;102735.69;5070097;28;20040;-46
2023/09/04 01:55:45;;;;;;;0.00;0.00;;;;;;;15.61;100.00;102733.97;5086092;28;20429;-47
2023/09/04 01:58:10;;;;;;;0.00;0.00;;;;;;;15.59;100.00;102728.72;5092341;28;20028;-45
2023/09/04 02:00:37;;;;;;;0.00;0.00;;;;;;;15.56;100.00;102743.47;5055845;28;20171;-47
2023/09/04 02:03:03;;;;;;;0.00;0.00;;;;;;;15.53;100.00;102735.69;5074533;28;20051;-46
2023/09/04 02:05:28;;;;;;;0.00;0.00;;;;;;;15.53;100.00;102732.09;5073990;28;20387;-47
2023/09/04 02:07:54;;;;;;;0.00;0.00;;;;;;;15.49;100.00;102728.88;5073208;28;20107;-48
2023/09/04 02:10:22;;;;;;;0.00;0.00;;;;;;;15.46;100.00;102737.38;5073754;28;20028;-47
2023/09/04 02:12:48;;;;;;;0.00;0.00;;;;;;;15.41;100.00;102723.44;5056739;28;20039;-48
2023/09/04 02:15:13;;;;;;;0.00;0.00;;;;;;;15.44;100.00;102725.81;5073354;28;20016;-49
2023/09/04 02:17:38;;;;;;;0.00;0.00;;;;;;;15.40;100.00;102727.16;5073416;28;20089;-47
2023/09/04 02:20:04;;;;;;;0.00;0.00;;;;;;;15.39;100.00;102720.06;5073489;28;20489;-46
2023/09/04 02:22:30;;;;;;;0.00;0.00;;;;;;;15.42;100.00;102725.13;5073681;28;20032;-45
2023/09/04 02:24:55;;;;;;;0.00;0.00;;;;;;;15.41;100.00;102715.31;5073465;28;20509;-47
2023/09/04 02:27:21;;;;;;;0.00;0.00;;;;;;;15.44;100.00;102716.84;5073722;28;20111;-47
2023/09/04 02:29:46;;;;;;;0.00;0.00;;;;;;;15.44;100.00;102712.25;5072038;28;20111;-50
2023/09/04 02:32:11;;;;;;;0.00;0.00;;;;;;;15.41;100.00;102709.03;5073883;28;20064;-47
2023/09/04 02:34:40;;;;;;;0.00;0.00;;;;;;;15.42;100.00;102706.16;5076312;28;20333;-48
2023/09/04 02:37:05;;;;;;;0.00;0.00;;;;;;;15.43;100.00;102705.16;5073262;28;20094;-49
2023/09/04 02:39:30;;;;;;;0.00;0.00;;;;;;;15.45;100.00;102697.66;5072726;28;20052;-47
2023/09/04 02:41:56;;;;;;;0.00;0.00;;;;;;;15.42;100.00;102692.59;5072639;28;20138;-49
2023/09/04 02:44:21;;;;;;;0.00;0.00;;;;;;;15.35;100.00;102689.72;5072741;28;20082;-47
2023/09/04 02:46:46;;;;;;;0.00;0.00;;;;;;;15.29;100.00;102686.81;5086241;28;20039;-46
2023/09/04 02:49:12;;;;;;;0.00;0.00;;;;;;;15.25;100.00;102680.88;5086212;28;20222;-45
2023/09/04 02:51:37;;;;;;;0.00;0.00;;;;;;;15.22;100.00;102677.63;5077668;28;20035;-47
2023/09/04 02:54:03;;;;;;;0.00;0.00;;;;;;;15.23;100.00;102674.78;5084240;28;20020;-44
2023/09/04 02:56:28;;;;;;;0.00;0.00;;;;;;;15.23;100.00;102671.22;5073223;28;20138;-48
2023/09/04 02:58:54;;;;;;;0.00;0.00;;;;;;;15.22;100.00;102672.22;5072460;28;20035;-45
2023/09/04 03:01:19;;;;;;;0.00;0.00;;;;;;;15.23;100.00;102672.06;5072535;28;20028;-49
2023/09/04 03:03:46;;;;;;;0.00;0.00;;;;;;;15.22;100.00;102669.50;5071022;28;20490;-45
2023/09/04 03:06:11;;;;;;;0.00;0.00;;;;;;;15.19;100.00;102672.56;5071165;28;20360;-47
2023/09/04 03:08:38;;;;;;;0.00;0.00;;;;;;;15.13;100.00;102672.19;5072442;28;20032;-45
2023/09/04 03:11:10;;;;;;;0.00;0.00;;;;;;;15.12;100.00;102678.66;5072743;28;20052;-47
2023/09/04 03:13:37;;;;;;;0.00;0.00;;;;;;;15.19;100.00;102669.84;5072537;28;20071;-45
2023/09/04 03:16:04;;;;;;;0.00;0.00;;;;;;;15.21;100.00;102667.81;5072460;28;20039;-50
2023/09/04 03:18:29;;;;;;;0.00;0.00;;;;;;;15.18;100.00;102657.31;5072258;28;20301;-50
2023/09/04 03:20:56;;;;;;;0.00;0.00;;;;;;;15.14;100.00;102654.94;5072448;28;20411;-47
2023/09/04 03:23:21;;;;;;;0.00;0.00;;;;;;;15.10;100.00;102661.69;5056560;28;20398;-47
2023/09/04 03:25:46;;;;;;;0.00;0.00;;;;;;;15.03;100.00;102663.38;5057673;28;20021;-46
2023/09/04 03:28:12;;;;;;;0.00;0.00;;;;;;;14.96;100.00;102665.06;5080290;28;20063;-48
2023/09/04 03:30:37;;;;;;;0.00;0.00;;;;;;;14.90;100.00;102669.31;5086747;28;20032;-48
2023/09/04 03:33:03;;;;;;;0.00;0.00;;;;;;;14.89;100.00;102658.63;5053876;28;20487;-48
2023/09/04 03:35:28;;;;;;;0.00;0.00;;;;;;;14.94;100.00;102658.97;5071969;28;20367;-50
2023/09/04 03:37:54;;;;;;;0.00;0.00;;;;;;;14.92;100.00;102656.41;5072926;28;20489;-46
2023/09/04 03:40:24;;;;;;;0.00;0.00;;;;;;;14.87;100.00;102655.22;5072450;28;20048;-46
2023/09/04 03:42:53;;;;;;;0.00;0.00;;;;;;;14.90;100.00;102661.16;5072147;28;20040;-48
2023/09/04 03:45:19;;;;;;;0.00;0.00;;;;;;;14.92;100.00;102648.28;5073548;28;20056;-48
2023/09/04 03:47:46;;;;;;;0.00;0.00;;;;;;;14.88;100.00;102652.34;5083352;28;20359;-47
2023/09/04 03:50:12;;;;;;;0.00;0.00;;;;;;;14.83;100.00;102643.03;5083124;28;20085;-48
2023/09/04 03:52:38;;;;;;;0.00;0.00;;;;;;;14.76;100.00;102642.81;5076322;28;20439;-48
2023/09/04 03:55:13;;;;;;;0.00;0.00;;;;;;;14.77;100.00;102649.09;5078693;28;20036;-46
2023/09/04 03:57:43;;;;;;;0.00;0.00;;;;;;;14.74;100.00;102644.84;5065575;28;20035;-45
2023/09/04 04:00:14;;;;;;;0.00;0.00;;;;;;;14.73;100.00;102645.03;5071569;28;20190;-47
2023/09/04 04:02:41;;;;;;;0.00;0.00;;;;;;;14.70;100.00;102651.63;5091057;28;20460;-48
2023/09/04 04:05:08;;;;;;;0.00;0.00;;;;;;;14.71;100.00;102662.28;5085534;28;20119;-49
2023/09/04 04:07:33;;;;;;;0.00;0.00;;;;;;;14.73;100.00;102664.00;5074597;28;20453;-47
2023/09/04 04:09:58;;;;;;;0.00;0.00;;;;;;;14.66;100.00;102664.63;5085178;28;20048;-49
2023/09/04 04:12:24;;;;;;;0.00;0.00;;;;;;;14.61;100.00;102658.88;5071484;28;20441;-50
2023/09/04 04:14:53;;;;;;;0.00;0.00;;;;;;;14.57;100.00;102665.63;5071424;28;20728;-46
2023/09/04 04:17:18;;;;;;;0.00;0.00;;;;;;;14.53;100.00;102661.53;5070514;28;20364;-48
2023/09/04 04:19:44;;;;;;;0.00;0.00;;;;;;;14.49;100.00;102661.00;5070583;28;20024;-50
2023/09/04 04:22:09;;;;;;;0.00;0.00;;;;;;;14.50;100.00;102667.25;5070011;28;20029;-46
2023/09/04 04:24:35;;;;;;;0.00;0.00;;;;;;;14.48;100.00;102669.28;5071488;28;20074;-49
2023/09/04 04:27:01;;;;;;;0.00;0.00;;;;;;;14.46;100.00;102661.34;5070329;28;20445;-47
2023/09/04 04:29:27;;;;;;;0.00;0.00;;;;;;;14.46;100.00;102663.19;5071291;28;20112;-47
2023/09/04 04:31:52;;;;;;;0.00;0.00;;;;;;;14.43;100.00;102663.53;5053051;28;20060;-46
2023/09/04 04:34:18;;;;;;;0.00;0.00;;;;;;;14.43;100.00;102669.78;5064747;28;20345;-50
2023/09/04 04:36:43;;;;;;;0.00;0.00;;;;;;;14.43;100.00;102666.25;5055385;28;20510;-49
2023/09/04 04:39:08;;;;;;;0.00;0.00;;;;;;;14.39;100.00;102675.69;5051924;28;20107;-49
2023/09/04 04:41:34;;;;;;;0.00;0.00;;;;;;;14.37;100.00;102664.16;5068733;28;20124;-47
2023/09/04 04:43:59;;;;;;;0.00;0.00;;;;;;;14.32;100.00;102667.34;5068593;28;20551;-48
2023/09/04 04:46:25;;;;;;;0.00;0.00;;;;;;;14.28;100.00;102676.81;5068541;28;20029;-47
2023/09/04 04:48:50;;;;;;;0.00;0.00;;;;;;;14.26;100.00;102673.41;5066670;28;20067;-49
2023/09/04 04:51:15;;;;;;;0.00;0.00;;;;;;;14.23;100.00;102666.47;5069561;28;20067;-48
2023/09/04 04:53:41;;;;;;;0.00;0.00;;;;;;;14.20;100.00;102658.66;5068481;28;20035;-49
2023/09/04 04:56:06;;;;;;;0.00;0.00;;;;;;;14.21;100.00;102662.22;5068686;28;20028;-50
2023/09/04 04:58:31;;;;;;;0.00;0.00;;;;;;;14.25;100.00;102660.91;5069795;28;20094;-47
2023/09/04 05:00:57;;;;;;;0.00;0.00;;;;;;;14.31;100.00;102651.28;5074131;28;20028;-48
2023/09/04 05:03:23;;;;;;;0.00;0.00;;;;;;;14.37;100.00;102647.91;5070975;28;20048;-51
2023/09/04 05:05:48;;;;;;;0.00;0.00;;;;;;;14.39;100.00;102648.59;5078793;28;20050;-45
2023/09/04 05:08:13;;;;;;;0.00;0.00;;;;;;;14.45;100.00;102648.78;5067324;28;20021;-47
2023/09/04 05:10:39;;;;;;;0.00;0.00;;;;;;;14.41;100.00;102643.88;5067487;28;20115;-46
2023/09/04 05:13:04;;;;;;;0.00;0.00;;;;;;;14.44;100.00;102647.09;5083369;28;20082;-49
2023/09/04 05:15:29;;;;;;;0.00;0.00;;;;;;;14.46;100.00;102646.94;5070569;28;20028;-50
2023/09/04 05:17:55;;;;;;;0.00;0.00;;;;;;;14.53;100.00;102648.00;5069076;28;20393;-47
2023/09/04 05:20:21;;;;;;;0.00;0.00;;;;;;;14.52;100.00;102648.16;5068596;28;20175;-47
2023/09/04 05:22:46;;;;;;;0.00;0.00;;;;;;;14.54;100.00;102646.16;5069410;28;20036;-50
2023/09/04 05:25:12;;;;;;;0.00;0.00;;;;;;;14.57;100.00;102646.66;5052329;28;20021;-48
2023/09/04 05:27:37;;;;;;;0.00;0.00;;;;;;;14.63;100.00;102639.75;5070009;28;20053;-46
2023/09/04 05:30:04;;;;;;;0.00;0.00;;;;;;;14.73;100.00;102648.59;5074621;28;20051;-47
2023/09/04 05:32:30;;;;;;;0.00;0.00;;;;;;;14.87;100.00;102645.22;5075221;28;20052;-48
2023/09/04 05:34:55;;;;;;;0.00;0.00;;;;;;;15.28;100.00;102652.56;5075139;28;20458;-46
2023/09/04 05:37:21;;;;;;;0.00;0.00;;;;;;;15.65;100.00;102656.63;5075416;28;20031;-48
2023/09/04 05:39:46;;;;;;;0.00;0.00;;;;;;;15.87;100.00;102644.22;5086097;28;20035;-51
2023/09/04 05:42:11;;;;;;;0.00;0.00;;;;;;;16.00;100.00;102636.38;5073390;28;20056;-48
2023/09/04 05:44:37;;;;;;;0.00;0.00;;;;;;;16.27;100.00;102621.50;5074855;28;20491;-48
2023/09/04 05:47:03;;;;;;;0.00;0.00;;;;;;;16.85;100.00;102613.94;5077047;28;20020;-48
2023/09/04 05:49:28;;;;;;;0.00;0.00;;;;;;;17.54;100.00;102622.06;5076057;28;20038;-49
2023/09/04 05:51:54;;;;;;;0.00;0.00;;;;;;;18.04;100.00;102614.25;5075743;28;20032;-47
2023/09/04 05:54:19;;;;;;;0.00;0.00;;;;;;;18.65;100.00;102602.00;5075966;28;20476;-48
2023/09/04 05:56:45;;;;;;;0.00;0.00;;;;;;;18.72;100.00;102590.31;5075406;28;20024;-48
2023/09/04 05:59:12;;;;;;;0.00;0.00;;;;;;;18.91;100.00;102589.72;5076323;28;20512;-49
2023/09/04 06:01:38;;;;;;;0.00;0.00;;;;;;;19.06;100.00;102586.91;5074327;28;20150;-48
2023/09/04 06:04:04;;;;;;;0.00;0.00;;;;;;;19.40;100.00;102577.97;5072985;28;20065;-47
2023/09/04 06:06:30;;;;;;;0.00;0.00;;;;;;;19.61;100.00;102585.25;5096550;28;20032;-47
2023/09/04 06:08:55;;;;;;;0.00;0.00;;;;;;;19.65;100.00;102577.53;5082109;28;20028;-46
2023/09/04 06:11:20;;;;;;;0.00;0.00;;;;;;;19.36;100.00;102575.84;5076386;28;20474;-48
2023/09/04 06:13:46;;;;;;;0.00;0.00;;;;;;;18.85;100.00;102568.66;5057633;28;20451;-50
2023/09/04 06:16:12;;;;;;;0.00;0.00;;;;;;;18.41;100.00;102567.75;5076366;28;20028;-48
2023/09/04 06:18:38;;;;;;;0.00;0.00;;;;;;;18.11;100.00;102571.56;5075353;28;20550;-50
2023/09/04 06:21:03;;;;;;;0.00;0.00;;;;;;;17.73;100.00;102579.84;5075665;28;20275;-47
2023/09/04 06:23:29;;;;;;;0.00;0.00;;;;;;;17.47;100.00;102583.00;5074447;28;20035;-49
2023/09/04 06:25:54;;;;;;;0.00;0.00;;;;;;;17.33;100.00;102590.94;5075865;28;20070;-47
2023/09/04 06:28:20;;;;;;;0.00;0.00;;;;;;;17.20;100.00;102585.28;5075560;28;20500;-49
2023/09/04 06:30:45;;;;;;;0.00;0.00;;;;;;;17.04;100.00;102590.88;5085253;28;20666;-47
2023/09/04 06:33:11;;;;;;;0.00;0.00;;;;;;;16.95;100.00;102586.50;5084103;28;20031;-50
2023/09/04 06:35:37;;;;;;;0.00;0.00;;;;;;;16.92;100.00;102592.31;5074825;28;20146;-47
2023/09/04 06:38:03;;;;;;;0.00;0.00;;;;;;;17.00;100.00;102600.41;5077478;28;20471;-48
2023/09/04 06:40:28;;;;;;;0.00;0.00;;;;;;;16.99;100.00;102594.13;5074400;28;20433;-47
2023/09/04 06:42:54;;;;;;;0.00;0.00;;;;;;;17.14;100.00;102586.03;5073596;28;20425;-46
2023/09/04 06:45:20;;;;;;;0.00;0.00;;;;;;;17.54;100.00;102592.13;5071059;28;20047;-48
2023/09/04 06:47:45;;;;;;;0.00;0.00;;;;;;;18.53;100.00;102584.44;5067081;28;20094;-47
2023/09/04 06:50:11;;;;;;;0.00;0.00;;;;;;;19.40;100.00;102582.59;5070471;28;20029;-48
2023/09/04 06:52:36;;;;;;;0.00;0.00;;;;;;;19.94;100.00;102573.72;5051574;28;20052;-47
2023/09/04 06:55:03;;;;;;;0.00;0.00;;;;;;;20.45;100.00;102575.19;5052626;28;20044;-48
2023/09/04 06:57:28;;;;;;;0.00;0.00;;;;;;;21.64;100.00;102575.34;5058435;28;20032;-47
2023/09/04 06:59:56;;;;;;;0.00;0.00;;;;;;;22.63;100.00;102577.94;5089247;28;20038;-48
2023/09/04 07:02:21;;;;;;;0.00;0.00;;;;;;;23.57;100.00;102570.66;5076750;28;20052;-46
2023/09/04 07:04:46;;;;;;;0.00;0.00;;;;;;;24.05;100.00;102565.25;5072198;28;20052;-48
2023/09/04 07:07:12;;;;;;;0.00;0.00;;;;;;;24.42;100.00;102570.72;5070706;28;20025;-55
2023/09/04 07:09:37;;;;;;;0.00;0.00;;;;;;;24.19;100.00;102571.44;5071661;28;20030;-50
2023/09/04 07:12:03;;;;;;;0.00;0.00;;;;;;;24.02;100.00;102560.22;5074288;28;20092;-46
2023/09/04 07:14:29;;;;;;;0.00;0.00;;;;;;;23.95;100.00;102570.47;5072423;28;20031;-47
2023/09/04 07:16:54;;;;;;;0.00;0.00;;;;;;;23.74;100.00;102571.75;5075005;28;20111;-47
2023/09/04 07:19:19;;;;;;;0.00;0.00;;;;;;;23.38;100.00;102569.75;5068185;28;20090;-47
2023/09/04 07:21:45;;;;;;;0.00;0.00;;;;;;;23.30;100.00;102561.81;5069161;28;20020;-50
2023/09/04 07:24:10;;;;;;;0.00;0.00;;;;;;;23.76;100.00;102555.88;5068799;28;20601;-48
2023/09/04 07:26:36;;;;;;;0.00;0.00;;;;;;;24.09;100.00;102555.50;5066323;28;20090;-51
2023/09/04 07:29:01;;;;;;;0.00;0.00;;;;;;;23.90;100.00;102556.56;5072695;28;20021;-47
2023/09/04 07:31:26;;;;;;;0.00;0.00;;;;;;;23.70;100.00;102562.28;5071828;28;20039;-45
2023/09/04 07:33:52;;;;;;;0.00;0.00;;;;;;;23.64;100.00;102560.41;5074275;28;20522;-45
2023/09/04 07:36:17;;;;;;;0.00;0.00;;;;;;;23.69;100.00;102557.81;5072052;28;20099;-47
2023/09/04 07:38:44;;;;;;;0.00;0.00;;;;;;;23.16;100.00;102564.69;5070598;28;20020;-47
2023/09/04 07:41:10;;;;;;;;;;;;;;;23.73;100.00;102572.84;5066844;28;20378;-47
2023/09/04 07:43:35;;;;;;;0.00;0.00;;;;;;;23.87;100.00;102573.53;5070532;28;19924;-48
2023/09/04 07:46:02;;;;;;;0.00;0.00;;;;;;;24.36;100.00;102574.41;5069551;28;20017;-47
2023/09/04 07:48:27;;;;;;;0.00;0.00;;;;;;;24.37;100.00;102580.75;5068437;28;20036;-48
2023/09/04 07:50:52;;;;;;;0.00;0.00;;;;;;;25.83;99.57;102578.41;5067050;28;20024;-47
2023/09/04 07:53:21;;;;;;;0.00;0.00;;;;;;;26.67;94.53;102575.16;5071087;28;20036;-46
2023/09/04 07:55:47;;;;;;;0.00;0.00;;;;;;;27.45;88.32;102580.91;5071619;28;20107;-47
2023/09/04 07:58:13;;;;;;;0.00;0.00;;;;;;;27.33;89.64;102581.84;5068133;28;20472;-46
2023/09/04 08:00:48;;;;;;;0.00;0.00;;;;;;;27.32;88.34;102588.44;5071779;28;20024;-46
2023/09/04 08:03:14;;;;;;;0.00;0.00;;;;;;;28.21;85.43;102589.41;5067729;28;20080;-47
2023/09/04 08:05:40;;;;;;;0.00;0.00;;;;;;;27.23;89.30;102584.44;5069896;28;20093;-47
2023/09/04 08:08:10;;;;;;;0.00;0.00;;;;;;;28.07;85.92;102577.91;5069302;28;20103;-47
2023/09/04 08:10:39;;;;;;;0.00;0.00;;;;;;;28.57;82.30;102582.38;5067499;28;20025;-48
2023/09/04 08:13:12;;;;;;;0.00;0.00;;;;;;;28.08;88.20;102584.28;5070603;28;20111;-49
2023/09/04 08:15:38;;;;;;;0.00;0.00;;;;;;;28.92;83.15;102589.34;5063505;28;20025;-49
2023/09/04 08:18:04;;;;;;;0.00;0.00;;;;;;;28.98;80.57;102588.28;5068329;28;20020;-49
2023/09/04 08:20:30;;;;;;;0.00;0.00;;;;;;;29.16;82.43;102580.72;5032539;28;20052;-47
2023/09/04 08:22:55;;;;;;;0.00;0.00;;;;;;;29.36;79.77;102583.66;5038923;28;20029;-46
2023/09/04 08:25:20;;;;;;;0.00;0.00;;;;;;;29.03;83.56;102585.56;5063887;28;20072;-45
2023/09/04 08:27:46;;;;;;;0.00;0.00;;;;;;;29.71;78.28;102579.44;5067196;28;20024;-45
2023/09/04 08:30:11;;;;;;;0.00;0.00;;;;;;;29.48;78.77;102575.94;5067673;28;20158;-47
2023/09/04 08:32:37;;;;;;;0.00;0.00;;;;;;;29.22;78.84;102571.31;5072506;28;20382;-47
2023/09/04 08:35:04;;;;;;;0.00;0.00;;;;;;;29.29;78.14;102572.78;5064824;28;20035;-46
2023/09/04 08:37:29;;;;;;;0.00;0.00;;;;;;;28.35;82.21;102563.00;5062533;28;20056;-46
2023/09/04 08:39:55;;;;;;;0.00;0.00;;;;;;;28.04;85.53;102567.34;5065025;28;20707;-47
2023/09/04 08:42:20;;;;;;;0.00;0.00;;;;;;;27.52;87.22;102564.97;5063450;28;20016;-50
2023/09/04 08:44:47;;;;;;;0.00;0.00;;;;;;;28.52;83.15;102568.47;5064785;28;20484;-50
2023/09/04 08:47:15;;;;;;;0.00;0.00;;;;;;;28.11;84.68;102559.69;5065749;28;20430;-50
2023/09/04 08:49:40;;;;;;;0.00;0.00;;;;;;;27.70;87.39;102556.38;5067319;28;20031;-48
2023/09/04 08:52:06;;;;;;;0.00;0.00;;;;;;;27.35;89.20;102553.91;5046265;28;20032;-47
2023/09/04 08:54:33;;;;;;;0.00;0.00;;;;;;;27.04;90.99;102552.56;5045783;28;20043;-46
2023/09/04 08:56:59;;;;;;;;;;;;;;;26.99;91.38;102546.97;5065262;28;20048;-47
2023/09/04 08:59:24;;;;;;;0.00;0.00;;;;;;;27.25;92.30;102557.41;5065237;28;19908;-46
2023/09/04 09:01:50;;;;;;;0.00;0.00;;;;;;;27.51;91.77;102552.22;5062342;28;20117;-47
2023/09/04 09:04:16;;;;;;;0.00;0.00;;;;;;;27.56;87.74;102552.28;5046121;28;20021;-46
2023/09/04 09:06:44;;;;;;;0.00;0.00;;;;;;;27.50;90.84;102556.91;5061326;28;20024;-48
2023/09/04 09:09:10;;;;;;;0.00;0.00;;;;;;;27.99;88.97;102546.00;5063241;28;20032;-44
2023/09/04 09:11:35;;;;;;;0.00;0.00;;;;;;;27.91;89.58;102553.88;5043905;28;20028;-46
2023/09/04 09:14:01;;;;;;;0.00;0.00;;;;;;;28.11;89.14;102545.84;5046637;28;20160;-49
2023/09/04 09:16:26;;;;;;;0.00;0.00;;;;;;;28.00;90.20;102549.59;5063478;28;20031;-48
2023/09/04 09:18:54;;;;;;;0.00;0.00;;;;;;;27.21;92.47;102545.16;5064654;28;20031;-45
2023/09/04 09:21:20;;;;;;;0.00;0.00;;;;;;;27.10;93.48;102535.84;5064356;28;20470;-46
2023/09/04 09:23:45;;;;;;;0.00;0.00;;;;;;;27.13;94.99;102534.50;5063839;28;20074;-47
2023/09/04 09:26:11;;;;;;;0.00;0.00;;;;;;;26.21;99.33;102535.59;5060031;28;20044;-47
2023/09/04 09:28:36;;;;;;;0.00;0.00;;;;;;;26.10;99.56;102537.31;5046914;28;20024;-47
2023/09/04 09:31:01;;;;;;;0.00;0.00;;;;;;;25.82;100.00;102544.44;5062651;28;20039;-47
2023/09/04 09:33:28;;;;;;;0.00;0.00;;;;;;;26.16;99.56;102528.06;5064036;28;20066;-48
2023/09/04 09:35:54;;;;;;;0.00;0.00;;;;;;;27.29;96.88;102533.66;5044014;28;20029;-47
2023/09/04 09:38:21;;;;;;;0.00;0.00;;;;;;;27.07;95.18;102530.00;5064369;28;20032;-46
2023/09/04 09:40:46;;;;;;;0.00;0.00;;;;;;;26.86;96.12;102526.06;5062806;28;20283;-47
2023/09/04 09:43:12;;;;;;;0.00;0.00;;;;;;;26.77;97.99;102533.06;5061863;28;20027;-45
2023/09/04 09:45:37;;;;;;;0.00;0.00;;;;;;;26.94;97.05;102536.69;5060709;28;20420;-47
2023/09/04 09:48:12;;;;;;;0.00;0.00;;;;;;;26.60;95.77;102535.81;5061941;28;20036;-50
2023/09/04 09:50:38;;;;;;;0.00;0.00;;;;;;;26.75;97.20;102532.47;5062917;28;20038;-50
2023/09/04 09:53:04;;;;;;;0.00;0.00;;;;;;;26.27;97.90;102529.91;5064309;28;20032;-44
2023/09/04 09:55:31;;;;;;;0.00;0.00;;;;;;;25.94;100.00;102527.06;5063168;28;20040;-47
2023/09/04 09:57:58;;;;;;;0.00;0.00;;;;;;;25.73;100.00;102525.78;5063462;28;20407;-50
2023/09/04 10:00:25;;;;;;;0.00;0.00;;;;;;;24.92;100.00;102517.25;5061873;28;20020;-48
2023/09/04 10:02:51;;;;;;;0.00;0.00;;;;;;;24.91;100.00;102516.44;5062104;28;20137;-46
2023/09/04 10:05:16;;;;;;;0.00;0.00;;;;;;;25.02;100.00;102503.75;5042333;28;20443;-47
2023/09/04 10:07:45;;;;;;;0.00;0.00;;;;;;;24.87;100.00;102506.94;5063137;28;20047;-46
2023/09/04 10:10:11;;;;;;;0.00;0.00;;;;;;;24.73;100.00;102497.25;5064272;28;20037;-45
2023/09/04 10:12:50;;;;;;;0.00;0.00;;;;;;;24.58;100.00;102500.44;5048297;28;20089;-45
2023/09/04 10:15:22;;;;;;;0.00;0.00;;;;;;;24.59;100.00;102487.50;5047723;28;20078;-47
2023/09/04 10:17:51;;;;;;;0.00;0.00;;;;;;;24.58;100.00;102492.16;5047603;28;20063;-45
2023/09/04 10:20:17;;;;;;;0.00;0.00;;;;;;;24.28;100.00;102486.69;5067830;28;20029;-46
2023/09/04 10:22:47;;;;;;;0.00;0.00;;;;;;;24.59;100.00;102485.59;5066297;28;20043;-49
2023/09/04 10:25:27;;;;;;;0.00;0.00;;;;;;;24.69;100.00;102487.75;5064396;28;20035;-47
2023/09/04 10:28:03;;;;;;;0.00;0.00;;;;;;;24.79;100.00;102487.19;5047513;28;20112;-46
2023/09/04 10:30:30;;;;;;;0.00;0.00;;;;;;;24.71;100.00;102491.97;5067481;28;20040;-45
2023/09/04 10:32:56;;;;;;;0.00;0.00;;;;;;;24.74;100.00;102485.97;5049456;28;20032;-44
2023/09/04 10:35:21;;;;;;;0.00;0.00;;;;;;;24.82;100.00;102489.47;5065951;28;20024;-46
2023/09/04 10:37:49;;;;;;;0.00;0.00;;;;;;;24.75;100.00;102482.16;5049833;28;20289;-48
2023/09/04 10:40:15;;;;;;;0.00;0.00;;;;;;;24.52;100.00;102484.88;5067248;28;20373;-47
2023/09/04 10:42:41;;;;;;;0.00;0.00;;;;;;;24.78;100.00;102477.22;5061807;28;20123;-46
2023/09/04 10:45:15;;;;;;;0.00;0.00;;;;;;;24.95;100.00;102480.97;5048866;28;20170;-47
2023/09/04 10:47:47;;;;;;;0.00;0.00;;;;;;;25.07;100.00;102481.81;5068001;28;20509;-48
2023/09/04 10:50:29;;;;;;;0.00;0.00;;;;;;;25.18;100.00;102481.00;5066980;28;20032;-47
2023/09/04 10:52:56;;;;;;;0.00;0.00;;;;;;;25.08;100.00;102486.25;5066191;28;20432;-45
2023/09/04 10:55:21;;;;;;;0.00;0.00;;;;;;;24.93;100.00;102477.59;5064407;28;20536;-49
2023/09/04 10:58:06;;;;;;;0.00;0.00;;;;;;;25.09;100.00;102476.91;5070395;28;20056;-48
2023/09/04 11:00:40;;;;;;;0.00;0.00;;;;;;;24.83;100.00;102480.97;5072356;28;20120;-45
2023/09/04 11:03:17;;;;;;;0.00;0.00;;;;;;;24.71;100.00;102475.44;5055952;28;20057;-48
2023/09/04 11:06:01;;;;;;;0.00;0.00;;;;;;;24.62;100.00;102474.13;5071551;28;20031;-47
2023/09/04 11:08:30;;;;;;;0.00;0.00;;;;;;;24.50;100.00;102474.09;5074382;28;20016;-47
2023/09/04 11:10:59;;;;;;;0.00;0.00;;;;;;;25.33;100.00;102465.88;5065913;28;20115;-47
2023/09/04 11:13:25;;;;;;;0.00;0.00;;;;;;;26.18;100.00;102461.59;5052686;28;20545;-46
2023/09/04 11:15:57;;;;;;;0.00;0.00;;;;;;;27.12;95.17;102466.47;5059001;28;20024;-47